sensor_id;sensor_type;location;lat;lon;timestamp;temperature;humidity
44431;DHT22;30135;47.866;-4.222;2023-04-06T00:02:23;10.70;92.10
44431;DHT22;30135;47.866;-4.222;2023-04-06T00:04:49;10.70;92.10
44431;DHT22;30135;47.866;-4.222;2023-04-06T00:07:15;10.80;92.20
44431;DHT22;30135;47.866;-4.222;2023-04-06T00:09:41;10.80;92.20
44431;DHT22;30135;47.866;-4.222;2023-04-06T00:12:07;10.80;92.20
44431;DHT22;30135;47.866;-4.222;2023-04-06T00:14:33;10.90;92.20
44431;DHT22;30135;47.866;-4.222;2023-04-06T00:16:59;10.90;92.20
44431;DHT22;30135;47.866;-4.222;2023-04-06T00:19:25;11.00;92.40
44431;DHT22;30135;47.866;-4.222;2023-04-06T00:21:51;11.00;92.40
44431;DHT22;30135;47.866;-4.222;2023-04-06T00:24:17;11.00;92.30
44431;DHT22;30135;47.866;-4.222;2023-04-06T00:26:43;11.00;92.30
44431;DHT22;30135;47.866;-4.222;2023-04-06T00:29:09;11.10;92.40
44431;DHT22;30135;47.866;-4.222;2023-04-06T00:31:36;11.10;92.50
44431;DHT22;30135;47.866;-4.222;2023-04-06T00:34:02;11.10;92.50
44431;DHT22;30135;47.866;-4.222;2023-04-06T00:36:28;11.10;92.50
44431;DHT22;30135;47.866;-4.222;2023-04-06T00:38:54;11.20;92.50
44431;DHT22;30135;47.866;-4.222;2023-04-06T00:41:20;11.20;92.60
44431;DHT22;30135;47.866;-4.222;2023-04-06T00:43:46;11.20;92.70
44431;DHT22;30135;47.866;-4.222;2023-04-06T00:46:12;11.20;92.70
44431;DHT22;30135;47.866;-4.222;2023-04-06T00:48:39;11.30;92.90
44431;DHT22;30135;47.866;-4.222;2023-04-06T00:51:06;11.30;92.90
44431;DHT22;30135;47.866;-4.222;2023-04-06T00:53:32;11.30;93.00
44431;DHT22;30135;47.866;-4.222;2023-04-06T00:55:58;11.40;93.00
44431;DHT22;30135;47.866;-4.222;2023-04-06T00:58:24;11.40;93.10
44431;DHT22;30135;47.866;-4.222;2023-04-06T01:00:50;11.40;93.00
44431;DHT22;30135;47.866;-4.222;2023-04-06T01:03:16;11.40;93.10
44431;DHT22;30135;47.866;-4.222;2023-04-06T01:05:49;11.40;93.10
44431;DHT22;30135;47.866;-4.222;2023-04-06T01:08:17;11.50;93.10
44431;DHT22;30135;47.866;-4.222;2023-04-06T01:10:43;11.50;93.20
44431;DHT22;30135;47.866;-4.222;2023-04-06T01:13:09;11.50;93.20
44431;DHT22;30135;47.866;-4.222;2023-04-06T01:15:36;11.50;93.20
44431;DHT22;30135;47.866;-4.222;2023-04-06T01:18:04;11.60;93.20
44431;DHT22;30135;47.866;-4.222;2023-04-06T01:20:32;11.60;93.30
44431;DHT22;30135;47.866;-4.222;2023-04-06T01:22:58;11.60;93.30
44431;DHT22;30135;47.866;-4.222;2023-04-06T01:25:24;11.60;93.40
44431;DHT22;30135;47.866;-4.222;2023-04-06T01:27:50;11.60;93.40
44431;DHT22;30135;47.866;-4.222;2023-04-06T01:30:16;11.70;93.50
44431;DHT22;30135;47.866;-4.222;2023-04-06T01:32:43;11.70;93.40
44431;DHT22;30135;47.866;-4.222;2023-04-06T01:35:09;11.70;93.50
44431;DHT22;30135;47.866;-4.222;2023-04-06T01:37:35;11.70;93.50
44431;DHT22;30135;47.866;-4.222;2023-04-06T01:40:02;11.70;93.50
44431;DHT22;30135;47.866;-4.222;2023-04-06T01:42:29;11.70;93.50
44431;DHT22;30135;47.866;-4.222;2023-04-06T01:44:58;11.70;93.50
44431;DHT22;30135;47.866;-4.222;2023-04-06T01:47:24;11.80;93.60
44431;DHT22;30135;47.866;-4.222;2023-04-06T01:49:50;11.80;93.50
44431;DHT22;30135;47.866;-4.222;2023-04-06T01:52:17;11.80;93.50
44431;DHT22;30135;47.866;-4.222;2023-04-06T01:54:43;11.80;93.60
44431;DHT22;30135;47.866;-4.222;2023-04-06T01:57:10;11.80;93.60
44431;DHT22;30135;47.866;-4.222;2023-04-06T01:59:36;11.80;93.60
44431;DHT22;30135;47.866;-4.222;2023-04-06T02:02:02;11.80;93.70
44431;DHT22;30135;47.866;-4.222;2023-04-06T02:04:28;11.80;93.70
44431;DHT22;30135;47.866;-4.222;2023-04-06T02:06:54;11.80;93.80
44431;DHT22;30135;47.866;-4.222;2023-04-06T02:09:20;11.90;93.80
44431;DHT22;30135;47.866;-4.222;2023-04-06T02:11:46;11.90;93.80
44431;DHT22;30135;47.866;-4.222;2023-04-06T02:14:12;11.90;93.80
44431;DHT22;30135;47.866;-4.222;2023-04-06T02:16:38;11.90;93.80
44431;DHT22;30135;47.866;-4.222;2023-04-06T02:19:04;11.90;93.80
44431;DHT22;30135;47.866;-4.222;2023-04-06T02:21:30;11.90;93.90
44431;DHT22;30135;47.866;-4.222;2023-04-06T02:23:56;11.90;93.90
44431;DHT22;30135;47.866;-4.222;2023-04-06T02:26:22;11.90;94.00
44431;DHT22;30135;47.866;-4.222;2023-04-06T02:28:48;11.90;93.90
44431;DHT22;30135;47.866;-4.222;2023-04-06T02:31:15;11.90;94.00
44431;DHT22;30135;47.866;-4.222;2023-04-06T02:33:41;12.00;94.10
44431;DHT22;30135;47.866;-4.222;2023-04-06T02:36:07;12.00;94.10
44431;DHT22;30135;47.866;-4.222;2023-04-06T02:38:33;12.00;94.20
44431;DHT22;30135;47.866;-4.222;2023-04-06T02:40:59;12.00;94.20
44431;DHT22;30135;47.866;-4.222;2023-04-06T02:43:25;12.00;94.30
44431;DHT22;30135;47.866;-4.222;2023-04-06T02:45:51;12.00;94.30
44431;DHT22;30135;47.866;-4.222;2023-04-06T02:48:17;12.10;94.30
44431;DHT22;30135;47.866;-4.222;2023-04-06T02:50:43;12.00;94.40
44431;DHT22;30135;47.866;-4.222;2023-04-06T02:53:10;12.10;94.50
44431;DHT22;30135;47.866;-4.222;2023-04-06T02:55:38;12.10;94.60
44431;DHT22;30135;47.866;-4.222;2023-04-06T02:58:04;12.10;94.70
44431;DHT22;30135;47.866;-4.222;2023-04-06T03:00:30;12.10;94.70
44431;DHT22;30135;47.866;-4.222;2023-04-06T03:02:56;12.10;94.70
44431;DHT22;30135;47.866;-4.222;2023-04-06T03:05:22;12.10;94.90
44431;DHT22;30135;47.866;-4.222;2023-04-06T03:07:49;12.10;95.00
44431;DHT22;30135;47.866;-4.222;2023-04-06T03:10:15;12.10;95.00
44431;DHT22;30135;47.866;-4.222;2023-04-06T03:12:41;12.10;95.10
44431;DHT22;30135;47.866;-4.222;2023-04-06T03:15:08;12.20;95.20
44431;DHT22;30135;47.866;-4.222;2023-04-06T03:17:35;12.20;95.30
44431;DHT22;30135;47.866;-4.222;2023-04-06T03:20:00;12.20;95.40
44431;DHT22;30135;47.866;-4.222;2023-04-06T03:22:26;12.20;95.40
44431;DHT22;30135;47.866;-4.222;2023-04-06T03:24:52;12.20;95.50
44431;DHT22;30135;47.866;-4.222;2023-04-06T03:27:18;12.30;95.70
44431;DHT22;30135;47.866;-4.222;2023-04-06T03:29:44;12.20;95.70
44431;DHT22;30135;47.866;-4.222;2023-04-06T03:32:11;12.30;95.80
44431;DHT22;30135;47.866;-4.222;2023-04-06T03:34:38;12.30;95.90
44431;DHT22;30135;47.866;-4.222;2023-04-06T03:37:04;12.30;96.00
44431;DHT22;30135;47.866;-4.222;2023-04-06T03:39:30;12.30;96.10
44431;DHT22;30135;47.866;-4.222;2023-04-06T03:42:00;12.30;96.10
44431;DHT22;30135;47.866;-4.222;2023-04-06T03:44:26;12.30;96.10
44431;DHT22;30135;47.866;-4.222;2023-04-06T03:46:52;12.40;96.30
44431;DHT22;30135;47.866;-4.222;2023-04-06T03:49:18;12.30;96.30
44431;DHT22;30135;47.866;-4.222;2023-04-06T03:51:43;12.40;96.30
44431;DHT22;30135;47.866;-4.222;2023-04-06T03:54:10;12.40;96.40
44431;DHT22;30135;47.866;-4.222;2023-04-06T03:56:35;12.40;96.50
44431;DHT22;30135;47.866;-4.222;2023-04-06T03:59:01;12.40;96.50
44431;DHT22;30135;47.866;-4.222;2023-04-06T04:01:31;12.40;96.80
44431;DHT22;30135;47.866;-4.222;2023-04-06T04:03:57;12.40;96.50
44431;DHT22;30135;47.866;-4.222;2023-04-06T04:06:23;12.40;96.50
44431;DHT22;30135;47.866;-4.222;2023-04-06T04:08:49;12.50;97.00
44431;DHT22;30135;47.866;-4.222;2023-04-06T04:11:15;12.50;96.60
44431;DHT22;30135;47.866;-4.222;2023-04-06T04:13:41;12.50;96.80
44431;DHT22;30135;47.866;-4.222;2023-04-06T04:16:07;12.50;96.80
44431;DHT22;30135;47.866;-4.222;2023-04-06T04:18:33;12.50;96.80
44431;DHT22;30135;47.866;-4.222;2023-04-06T04:20:59;12.50;96.90
44431;DHT22;30135;47.866;-4.222;2023-04-06T04:23:25;12.50;96.90
44431;DHT22;30135;47.866;-4.222;2023-04-06T04:25:51;12.50;96.90
44431;DHT22;30135;47.866;-4.222;2023-04-06T04:28:17;12.50;96.90
44431;DHT22;30135;47.866;-4.222;2023-04-06T04:30:46;12.50;97.00
44431;DHT22;30135;47.866;-4.222;2023-04-06T04:33:12;12.50;97.10
44431;DHT22;30135;47.866;-4.222;2023-04-06T04:35:45;12.60;97.10
44431;DHT22;30135;47.866;-4.222;2023-04-06T04:38:11;12.60;97.10
44431;DHT22;30135;47.866;-4.222;2023-04-06T04:40:37;12.60;97.10
44431;DHT22;30135;47.866;-4.222;2023-04-06T04:43:06;12.60;97.20
44431;DHT22;30135;47.866;-4.222;2023-04-06T04:45:32;12.60;97.10
44431;DHT22;30135;47.866;-4.222;2023-04-06T04:47:58;12.60;97.20
44431;DHT22;30135;47.866;-4.222;2023-04-06T04:50:24;12.60;97.30
44431;DHT22;30135;47.866;-4.222;2023-04-06T04:52:50;12.60;97.40
44431;DHT22;30135;47.866;-4.222;2023-04-06T04:55:16;12.60;97.40
44431;DHT22;30135;47.866;-4.222;2023-04-06T04:57:43;12.60;97.50
44431;DHT22;30135;47.866;-4.222;2023-04-06T05:00:09;12.60;97.50
44431;DHT22;30135;47.866;-4.222;2023-04-06T05:02:36;12.60;97.50
44431;DHT22;30135;47.866;-4.222;2023-04-06T05:05:02;12.60;97.60
44431;DHT22;30135;47.866;-4.222;2023-04-06T05:07:28;12.60;97.60
44431;DHT22;30135;47.866;-4.222;2023-04-06T05:09:54;12.60;97.60
44431;DHT22;30135;47.866;-4.222;2023-04-06T05:12:20;12.70;97.80
44431;DHT22;30135;47.866;-4.222;2023-04-06T05:14:46;12.70;97.80
44431;DHT22;30135;47.866;-4.222;2023-04-06T05:17:15;12.70;97.80
44431;DHT22;30135;47.866;-4.222;2023-04-06T05:19:41;12.70;97.90
44431;DHT22;30135;47.866;-4.222;2023-04-06T05:22:07;12.70;97.90
44431;DHT22;30135;47.866;-4.222;2023-04-06T05:24:33;12.70;97.90
44431;DHT22;30135;47.866;-4.222;2023-04-06T05:27:00;12.70;98.00
44431;DHT22;30135;47.866;-4.222;2023-04-06T05:29:26;12.70;98.00
44431;DHT22;30135;47.866;-4.222;2023-04-06T05:31:52;12.70;98.00
44431;DHT22;30135;47.866;-4.222;2023-04-06T05:34:18;12.70;98.00
44431;DHT22;30135;47.866;-4.222;2023-04-06T05:36:44;12.70;98.10
44431;DHT22;30135;47.866;-4.222;2023-04-06T05:39:10;12.70;98.10
44431;DHT22;30135;47.866;-4.222;2023-04-06T05:41:37;12.70;98.20
44431;DHT22;30135;47.866;-4.222;2023-04-06T05:44:03;12.70;98.20
44431;DHT22;30135;47.866;-4.222;2023-04-06T05:46:30;12.80;98.20
44431;DHT22;30135;47.866;-4.222;2023-04-06T05:48:56;12.80;98.30
44431;DHT22;30135;47.866;-4.222;2023-04-06T05:51:22;12.80;98.30
44431;DHT22;30135;47.866;-4.222;2023-04-06T05:53:53;12.80;98.30
44431;DHT22;30135;47.866;-4.222;2023-04-06T05:56:19;12.80;98.20
44431;DHT22;30135;47.866;-4.222;2023-04-06T05:58:46;12.80;98.30
44431;DHT22;30135;47.866;-4.222;2023-04-06T06:01:12;12.80;98.30
44431;DHT22;30135;47.866;-4.222;2023-04-06T06:03:38;12.80;98.30
44431;DHT22;30135;47.866;-4.222;2023-04-06T06:06:04;12.80;98.30
44431;DHT22;30135;47.866;-4.222;2023-04-06T06:08:30;12.80;98.40
44431;DHT22;30135;47.866;-4.222;2023-04-06T06:10:56;12.80;98.50
44431;DHT22;30135;47.866;-4.222;2023-04-06T06:13:28;12.80;98.50
44431;DHT22;30135;47.866;-4.222;2023-04-06T06:15:54;12.80;98.50
44431;DHT22;30135;47.866;-4.222;2023-04-06T06:18:21;12.90;98.60
44431;DHT22;30135;47.866;-4.222;2023-04-06T06:20:47;12.90;98.60
44431;DHT22;30135;47.866;-4.222;2023-04-06T06:23:13;12.90;98.50
44431;DHT22;30135;47.866;-4.222;2023-04-06T06:25:39;12.90;98.50
44431;DHT22;30135;47.866;-4.222;2023-04-06T06:28:05;12.90;98.60
44431;DHT22;30135;47.866;-4.222;2023-04-06T06:30:31;12.90;98.60
44431;DHT22;30135;47.866;-4.222;2023-04-06T06:32:58;12.90;98.60
44431;DHT22;30135;47.866;-4.222;2023-04-06T06:35:24;12.90;98.60
44431;DHT22;30135;47.866;-4.222;2023-04-06T06:37:50;12.90;98.70
44431;DHT22;30135;47.866;-4.222;2023-04-06T06:40:17;12.90;98.70
44431;DHT22;30135;47.866;-4.222;2023-04-06T06:42:43;13.00;98.70
44431;DHT22;30135;47.866;-4.222;2023-04-06T06:45:09;12.90;98.80
44431;DHT22;30135;47.866;-4.222;2023-04-06T06:47:35;12.90;98.80
44431;DHT22;30135;47.866;-4.222;2023-04-06T06:50:01;13.00;98.90
44431;DHT22;30135;47.866;-4.222;2023-04-06T06:52:28;13.00;98.90
44431;DHT22;30135;47.866;-4.222;2023-04-06T06:54:54;13.00;98.90
44431;DHT22;30135;47.866;-4.222;2023-04-06T06:57:22;13.00;98.90
44431;DHT22;30135;47.866;-4.222;2023-04-06T06:59:48;13.00;98.90
44431;DHT22;30135;47.866;-4.222;2023-04-06T07:02:14;13.00;99.00
44431;DHT22;30135;47.866;-4.222;2023-04-06T07:04:49;13.00;99.10
44431;DHT22;30135;47.866;-4.222;2023-04-06T07:07:15;13.00;99.10
44431;DHT22;30135;47.866;-4.222;2023-04-06T07:09:41;13.00;99.10
44431;DHT22;30135;47.866;-4.222;2023-04-06T07:12:10;13.00;99.10
44431;DHT22;30135;47.866;-4.222;2023-04-06T07:14:39;13.00;99.20
44431;DHT22;30135;47.866;-4.222;2023-04-06T07:17:06;13.00;99.10
44431;DHT22;30135;47.866;-4.222;2023-04-06T07:19:32;13.00;99.20
44431;DHT22;30135;47.866;-4.222;2023-04-06T07:21:58;13.10;99.30
44431;DHT22;30135;47.866;-4.222;2023-04-06T07:24:26;13.10;99.20
44431;DHT22;30135;47.866;-4.222;2023-04-06T07:26:52;13.10;99.40
44431;DHT22;30135;47.866;-4.222;2023-04-06T07:29:18;13.10;99.40
44431;DHT22;30135;47.866;-4.222;2023-04-06T07:31:44;13.10;99.40
44431;DHT22;30135;47.866;-4.222;2023-04-06T07:34:10;13.10;99.80
44431;DHT22;30135;47.866;-4.222;2023-04-06T07:36:36;13.10;99.40
44431;DHT22;30135;47.866;-4.222;2023-04-06T07:39:02;13.10;99.50
44431;DHT22;30135;47.866;-4.222;2023-04-06T07:41:28;13.10;99.60
44431;DHT22;30135;47.866;-4.222;2023-04-06T07:43:54;13.10;99.60
44431;DHT22;30135;47.866;-4.222;2023-04-06T07:46:21;13.10;99.50
44431;DHT22;30135;47.866;-4.222;2023-04-06T07:48:47;13.20;99.50
44431;DHT22;30135;47.866;-4.222;2023-04-06T07:51:13;13.20;99.60
44431;DHT22;30135;47.866;-4.222;2023-04-06T07:53:40;13.20;99.60
44431;DHT22;30135;47.866;-4.222;2023-04-06T07:56:06;13.20;99.50
44431;DHT22;30135;47.866;-4.222;2023-04-06T07:58:32;13.20;99.40
44431;DHT22;30135;47.866;-4.222;2023-04-06T08:00:58;13.20;99.70
44431;DHT22;30135;47.866;-4.222;2023-04-06T08:03:24;13.10;99.30
44431;DHT22;30135;47.866;-4.222;2023-04-06T08:05:51;13.10;99.10
44431;DHT22;30135;47.866;-4.222;2023-04-06T08:08:18;13.10;99.10
44431;DHT22;30135;47.866;-4.222;2023-04-06T08:10:47;13.10;99.10
44431;DHT22;30135;47.866;-4.222;2023-04-06T08:13:14;13.00;99.10
44431;DHT22;30135;47.866;-4.222;2023-04-06T08:15:40;13.10;99.10
44431;DHT22;30135;47.866;-4.222;2023-04-06T08:18:07;13.00;99.00
44431;DHT22;30135;47.866;-4.222;2023-04-06T08:20:34;13.00;99.00
44431;DHT22;30135;47.866;-4.222;2023-04-06T08:23:01;13.00;99.00
44431;DHT22;30135;47.866;-4.222;2023-04-06T08:25:27;13.00;99.00
44431;DHT22;30135;47.866;-4.222;2023-04-06T08:27:53;13.00;98.90
44431;DHT22;30135;47.866;-4.222;2023-04-06T08:30:19;13.00;98.90
44431;DHT22;30135;47.866;-4.222;2023-04-06T08:32:46;13.00;99.00
44431;DHT22;30135;47.866;-4.222;2023-04-06T08:35:12;13.00;98.90
44431;DHT22;30135;47.866;-4.222;2023-04-06T08:37:38;13.00;98.90
44431;DHT22;30135;47.866;-4.222;2023-04-06T08:40:04;13.00;98.80
44431;DHT22;30135;47.866;-4.222;2023-04-06T08:42:44;13.10;98.80
44431;DHT22;30135;47.866;-4.222;2023-04-06T08:45:14;13.10;98.70
44431;DHT22;30135;47.866;-4.222;2023-04-06T08:47:42;13.10;98.80
44431;DHT22;30135;47.866;-4.222;2023-04-06T08:50:09;13.00;98.80
44431;DHT22;30135;47.866;-4.222;2023-04-06T08:52:38;13.00;98.80
44431;DHT22;30135;47.866;-4.222;2023-04-06T08:55:05;13.00;98.80
44431;DHT22;30135;47.866;-4.222;2023-04-06T08:57:31;13.00;98.80
44431;DHT22;30135;47.866;-4.222;2023-04-06T09:00:00;13.10;98.80
44431;DHT22;30135;47.866;-4.222;2023-04-06T09:02:27;13.00;98.70
44431;DHT22;30135;47.866;-4.222;2023-04-06T09:04:53;13.00;98.60
44431;DHT22;30135;47.866;-4.222;2023-04-06T09:07:21;13.10;98.70
44431;DHT22;30135;47.866;-4.222;2023-04-06T09:09:47;13.10;98.60
44431;DHT22;30135;47.866;-4.222;2023-04-06T09:14:49;13.10;98.40
44431;DHT22;30135;47.866;-4.222;2023-04-06T09:17:27;13.10;98.50
44431;DHT22;30135;47.866;-4.222;2023-04-06T09:19:53;13.10;98.40
44431;DHT22;30135;47.866;-4.222;2023-04-06T09:22:20;13.10;98.50
44431;DHT22;30135;47.866;-4.222;2023-04-06T09:24:48;13.10;98.50
44431;DHT22;30135;47.866;-4.222;2023-04-06T09:27:16;13.10;98.40
44431;DHT22;30135;47.866;-4.222;2023-04-06T09:29:43;13.10;98.40
44431;DHT22;30135;47.866;-4.222;2023-04-06T09:32:11;13.20;98.40
44431;DHT22;30135;47.866;-4.222;2023-04-06T09:34:40;13.20;98.20
44431;DHT22;30135;47.866;-4.222;2023-04-06T09:37:16;13.20;98.10
44431;DHT22;30135;47.866;-4.222;2023-04-06T09:39:44;13.20;98.00
44431;DHT22;30135;47.866;-4.222;2023-04-06T09:42:26;13.20;98.00
44431;DHT22;30135;47.866;-4.222;2023-04-06T09:44:53;13.20;97.70
44431;DHT22;30135;47.866;-4.222;2023-04-06T09:47:36;13.20;97.70
44431;DHT22;30135;47.866;-4.222;2023-04-06T09:50:10;13.30;97.70
44431;DHT22;30135;47.866;-4.222;2023-04-06T09:52:46;13.30;97.70
44431;DHT22;30135;47.866;-4.222;2023-04-06T09:55:26;13.30;97.60
44431;DHT22;30135;47.866;-4.222;2023-04-06T09:58:20;13.40;97.60
44431;DHT22;30135;47.866;-4.222;2023-04-06T10:01:12;13.40;97.60
44431;DHT22;30135;47.866;-4.222;2023-04-06T10:04:01;13.50;97.60
44431;DHT22;30135;47.866;-4.222;2023-04-06T10:06:34;13.50;97.60
44431;DHT22;30135;47.866;-4.222;2023-04-06T10:09:02;13.50;97.50
44431;DHT22;30135;47.866;-4.222;2023-04-06T10:11:31;13.60;97.50
44431;DHT22;30135;47.866;-4.222;2023-04-06T10:13:57;13.60;97.40
44431;DHT22;30135;47.866;-4.222;2023-04-06T10:16:25;13.70;97.90
44431;DHT22;30135;47.866;-4.222;2023-04-06T10:18:56;13.70;97.50
44431;DHT22;30135;47.866;-4.222;2023-04-06T10:21:29;13.80;97.50
44431;DHT22;30135;47.866;-4.222;2023-04-06T10:24:01;13.80;97.60
44431;DHT22;30135;47.866;-4.222;2023-04-06T10:26:28;13.80;97.60
44431;DHT22;30135;47.866;-4.222;2023-04-06T10:28:54;13.80;97.50
44431;DHT22;30135;47.866;-4.222;2023-04-06T10:31:27;13.80;97.40
44431;DHT22;30135;47.866;-4.222;2023-04-06T10:33:59;13.80;97.20
44431;DHT22;30135;47.866;-4.222;2023-04-06T10:36:32;13.90;97.20
44431;DHT22;30135;47.866;-4.222;2023-04-06T10:39:01;14.00;97.00
44431;DHT22;30135;47.866;-4.222;2023-04-06T10:41:43;14.00;96.80
44431;DHT22;30135;47.866;-4.222;2023-04-06T10:44:23;14.10;97.00
44431;DHT22;30135;47.866;-4.222;2023-04-06T10:46:58;14.20;96.60
44431;DHT22;30135;47.866;-4.222;2023-04-06T10:49:28;14.30;96.40
44431;DHT22;30135;47.866;-4.222;2023-04-06T10:51:55;14.30;96.10
44431;DHT22;30135;47.866;-4.222;2023-04-06T10:54:24;14.40;95.70
44431;DHT22;30135;47.866;-4.222;2023-04-06T10:56:51;14.40;95.30
44431;DHT22;30135;47.866;-4.222;2023-04-06T10:59:21;14.40;95.10
44431;DHT22;30135;47.866;-4.222;2023-04-06T11:01:48;14.40;94.90
44431;DHT22;30135;47.866;-4.222;2023-04-06T11:04:18;14.40;94.80
44431;DHT22;30135;47.866;-4.222;2023-04-06T11:06:49;14.30;94.40
44431;DHT22;30135;47.866;-4.222;2023-04-06T11:09:29;14.30;94.40
44431;DHT22;30135;47.866;-4.222;2023-04-06T11:12:00;14.40;94.30
44431;DHT22;30135;47.866;-4.222;2023-04-06T11:14:26;14.40;94.20
44431;DHT22;30135;47.866;-4.222;2023-04-06T11:16:52;14.40;93.90
44431;DHT22;30135;47.866;-4.222;2023-04-06T11:19:19;14.40;93.40
44431;DHT22;30135;47.866;-4.222;2023-04-06T11:21:46;14.40;93.30
44431;DHT22;30135;47.866;-4.222;2023-04-06T11:24:16;14.40;93.10
44431;DHT22;30135;47.866;-4.222;2023-04-06T11:26:50;14.40;93.00
44431;DHT22;30135;47.866;-4.222;2023-04-06T11:29:20;14.40;92.90
44431;DHT22;30135;47.866;-4.222;2023-04-06T11:31:53;14.50;92.80
44431;DHT22;30135;47.866;-4.222;2023-04-06T11:34:24;14.50;92.80
44431;DHT22;30135;47.866;-4.222;2023-04-06T11:36:56;14.50;92.70
44431;DHT22;30135;47.866;-4.222;2023-04-06T11:39:25;14.40;92.70
44431;DHT22;30135;47.866;-4.222;2023-04-06T11:42:01;14.50;92.90
44431;DHT22;30135;47.866;-4.222;2023-04-06T11:44:38;14.50;92.80
44431;DHT22;30135;47.866;-4.222;2023-04-06T11:47:10;14.50;92.70
44431;DHT22;30135;47.866;-4.222;2023-04-06T11:49:41;14.50;92.70
44431;DHT22;30135;47.866;-4.222;2023-04-06T11:52:24;14.50;92.70
44431;DHT22;30135;47.866;-4.222;2023-04-06T11:54:51;14.60;92.60
44431;DHT22;30135;47.866;-4.222;2023-04-06T11:57:20;14.60;92.60
44431;DHT22;30135;47.866;-4.222;2023-04-06T11:59:48;14.70;92.50
44431;DHT22;30135;47.866;-4.222;2023-04-06T12:02:15;14.80;92.30
44431;DHT22;30135;47.866;-4.222;2023-04-06T12:04:41;14.80;92.10
44431;DHT22;30135;47.866;-4.222;2023-04-06T12:07:07;14.80;92.00
44431;DHT22;30135;47.866;-4.222;2023-04-06T12:09:33;14.80;91.90
44431;DHT22;30135;47.866;-4.222;2023-04-06T12:12:05;14.80;91.80
44431;DHT22;30135;47.866;-4.222;2023-04-06T12:14:31;14.80;91.70
44431;DHT22;30135;47.866;-4.222;2023-04-06T12:16:58;14.80;91.50
44431;DHT22;30135;47.866;-4.222;2023-04-06T12:19:24;14.70;91.30
44431;DHT22;30135;47.866;-4.222;2023-04-06T12:21:52;14.70;91.20
44431;DHT22;30135;47.866;-4.222;2023-04-06T12:24:19;14.70;91.20
44431;DHT22;30135;47.866;-4.222;2023-04-06T12:26:46;14.70;91.10
44431;DHT22;30135;47.866;-4.222;2023-04-06T12:29:12;14.70;90.90
44431;DHT22;30135;47.866;-4.222;2023-04-06T12:31:38;14.70;90.60
44431;DHT22;30135;47.866;-4.222;2023-04-06T12:34:06;14.70;90.50
44431;DHT22;30135;47.866;-4.222;2023-04-06T12:36:33;14.60;90.30
44431;DHT22;30135;47.866;-4.222;2023-04-06T12:38:59;14.60;90.30
44431;DHT22;30135;47.866;-4.222;2023-04-06T12:41:27;14.60;90.40
44431;DHT22;30135;47.866;-4.222;2023-04-06T12:43:54;14.60;90.60
44431;DHT22;30135;47.866;-4.222;2023-04-06T12:46:20;14.60;90.70
44431;DHT22;30135;47.866;-4.222;2023-04-06T12:48:46;14.70;90.60
44431;DHT22;30135;47.866;-4.222;2023-04-06T12:51:13;14.70;90.40
44431;DHT22;30135;47.866;-4.222;2023-04-06T12:53:39;14.80;90.10
44431;DHT22;30135;47.866;-4.222;2023-04-06T12:56:16;14.80;89.80
44431;DHT22;30135;47.866;-4.222;2023-04-06T12:58:43;14.80;89.10
44431;DHT22;30135;47.866;-4.222;2023-04-06T13:01:10;14.90;89.00
44431;DHT22;30135;47.866;-4.222;2023-04-06T13:03:39;14.90;88.40
44431;DHT22;30135;47.866;-4.222;2023-04-06T13:06:06;15.00;87.50
44431;DHT22;30135;47.866;-4.222;2023-04-06T13:08:34;15.00;87.30
44431;DHT22;30135;47.866;-4.222;2023-04-06T13:11:03;15.00;86.90
44431;DHT22;30135;47.866;-4.222;2023-04-06T13:13:29;14.90;86.50
44431;DHT22;30135;47.866;-4.222;2023-04-06T13:16:03;15.00;86.10
44431;DHT22;30135;47.866;-4.222;2023-04-06T13:18:31;14.90;85.60
44431;DHT22;30135;47.866;-4.222;2023-04-06T13:20:58;14.90;84.80
44431;DHT22;30135;47.866;-4.222;2023-04-06T13:23:27;14.90;84.80
44431;DHT22;30135;47.866;-4.222;2023-04-06T13:26:07;14.90;84.90
44431;DHT22;30135;47.866;-4.222;2023-04-06T13:28:34;14.90;84.60
44431;DHT22;30135;47.866;-4.222;2023-04-06T13:31:02;14.90;84.60
44431;DHT22;30135;47.866;-4.222;2023-04-06T13:33:30;15.00;84.50
44431;DHT22;30135;47.866;-4.222;2023-04-06T13:35:57;15.00;84.30
44431;DHT22;30135;47.866;-4.222;2023-04-06T13:38:24;15.00;83.90
44431;DHT22;30135;47.866;-4.222;2023-04-06T13:40:50;15.10;83.60
44431;DHT22;30135;47.866;-4.222;2023-04-06T13:43:17;15.10;83.20
44431;DHT22;30135;47.866;-4.222;2023-04-06T13:45:53;15.20;83.10
44431;DHT22;30135;47.866;-4.222;2023-04-06T13:48:20;15.20;82.80
44431;DHT22;30135;47.866;-4.222;2023-04-06T13:50:47;15.20;82.40
44431;DHT22;30135;47.866;-4.222;2023-04-06T13:53:13;15.20;82.40
44431;DHT22;30135;47.866;-4.222;2023-04-06T13:55:40;15.30;82.10
44431;DHT22;30135;47.866;-4.222;2023-04-06T13:58:06;15.20;81.80
44431;DHT22;30135;47.866;-4.222;2023-04-06T14:00:32;15.20;81.50
44431;DHT22;30135;47.866;-4.222;2023-04-06T14:02:58;15.20;81.30
44431;DHT22;30135;47.866;-4.222;2023-04-06T14:05:24;15.20;81.30
44431;DHT22;30135;47.866;-4.222;2023-04-06T14:07:50;15.20;81.00
44431;DHT22;30135;47.866;-4.222;2023-04-06T14:10:16;15.10;81.10
44431;DHT22;30135;47.866;-4.222;2023-04-06T14:12:43;15.00;81.80
44431;DHT22;30135;47.866;-4.222;2023-04-06T14:15:11;15.00;80.70
44431;DHT22;30135;47.866;-4.222;2023-04-06T14:17:38;14.90;80.80
44431;DHT22;30135;47.866;-4.222;2023-04-06T14:20:07;14.90;81.00
44431;DHT22;30135;47.866;-4.222;2023-04-06T14:22:40;14.90;80.80
44431;DHT22;30135;47.866;-4.222;2023-04-06T14:25:08;14.90;80.80
44431;DHT22;30135;47.866;-4.222;2023-04-06T14:27:35;14.90;80.50
44431;DHT22;30135;47.866;-4.222;2023-04-06T14:30:01;15.00;80.60
44431;DHT22;30135;47.866;-4.222;2023-04-06T14:32:27;15.00;80.30
44431;DHT22;30135;47.866;-4.222;2023-04-06T14:34:53;15.00;79.80
44431;DHT22;30135;47.866;-4.222;2023-04-06T14:37:19;15.00;80.00
44431;DHT22;30135;47.866;-4.222;2023-04-06T14:39:46;15.00;79.60
44431;DHT22;30135;47.866;-4.222;2023-04-06T14:42:12;15.00;80.00
44431;DHT22;30135;47.866;-4.222;2023-04-06T14:44:38;15.00;80.10
44431;DHT22;30135;47.866;-4.222;2023-04-06T14:47:09;15.00;80.00
44431;DHT22;30135;47.866;-4.222;2023-04-06T14:49:35;15.00;80.00
44431;DHT22;30135;47.866;-4.222;2023-04-06T14:52:01;14.90;80.00
44431;DHT22;30135;47.866;-4.222;2023-04-06T14:54:27;14.90;79.70
44431;DHT22;30135;47.866;-4.222;2023-04-06T14:56:54;14.90;79.80
44431;DHT22;30135;47.866;-4.222;2023-04-06T14:59:20;15.00;79.80
44431;DHT22;30135;47.866;-4.222;2023-04-06T15:01:46;15.00;79.70
44431;DHT22;30135;47.866;-4.222;2023-04-06T15:04:12;15.00;79.80
44431;DHT22;30135;47.866;-4.222;2023-04-06T15:06:40;15.10;79.70
44431;DHT22;30135;47.866;-4.222;2023-04-06T15:09:08;15.20;80.00
44431;DHT22;30135;47.866;-4.222;2023-04-06T15:11:34;15.20;80.20
44431;DHT22;30135;47.866;-4.222;2023-04-06T15:14:07;15.20;79.50
44431;DHT22;30135;47.866;-4.222;2023-04-06T15:16:33;15.20;79.60
44431;DHT22;30135;47.866;-4.222;2023-04-06T15:18:59;15.20;79.50
44431;DHT22;30135;47.866;-4.222;2023-04-06T15:21:25;15.30;79.10